createdAt,value
2022-10-05T00:00:00.093Z,44.92
2022-10-05T00:02:32.081Z,45.03
2022-10-05T00:05:00.388Z,44.69
2022-10-05T00:07:30.156Z,45.41
2022-10-05T00:09:59.756Z,45.83
2022-10-05T00:12:29.861Z,45.61
2022-10-05T00:15:01.311Z,45.62
2022-10-05T00:17:30.459Z,45.38
2022-10-05T00:19:59.040Z,46.15
2022-10-05T00:22:33.181Z,46.01
2022-10-05T00:25:11.075Z,45.55
2022-10-05T00:27:39.529Z,45.35
2022-10-05T00:30:17.372Z,45.52
2022-10-05T00:32:46.725Z,45.78
2022-10-05T00:35:16.951Z,46.26
2022-10-05T00:37:51.129Z,46.17
2022-10-05T00:40:41.793Z,46.14
2022-10-05T00:43:38.624Z,46.49
2022-10-05T00:46:22.603Z,46.07
2022-10-05T00:49:07.970Z,46.35
2022-10-05T00:51:37.647Z,46.34
2022-10-05T00:54:27.433Z,46.08
2022-10-05T00:57:16.627Z,45.42
2022-10-05T01:00:17.212Z,46.16
2022-10-05T01:03:00.745Z,46.12
2022-10-05T01:05:41.561Z,46.48
2022-10-05T01:08:21.941Z,47.06
2022-10-05T01:11:07.555Z,46.79
2022-10-05T01:13:51.509Z,46.98
2022-10-05T01:16:46.859Z,46.58
2022-10-05T01:19:21.383Z,46.18
2022-10-05T01:21:56.940Z,46.55
2022-10-05T01:24:46.614Z,47.16
2022-10-05T01:27:37.378Z,47.45
2022-10-05T01:30:12.235Z,47.37
2022-10-05T01:32:43.779Z,47.08
2022-10-05T01:35:15.103Z,47.27
2022-10-05T01:37:55.535Z,47.53
2022-10-05T01:40:36.276Z,46.77
2022-10-05T01:43:34.215Z,46.81
2022-10-05T01:46:05.311Z,46.96
2022-10-05T01:48:55.552Z,46.84
2022-10-05T01:51:39.008Z,46.70
2022-10-05T01:54:18.541Z,46.50
2022-10-05T01:57:06.201Z,46.93
2022-10-05T01:59:34.489Z,46.79
2022-10-05T02:02:11.368Z,46.33
2022-10-05T02:05:03.084Z,47.43
2022-10-05T02:07:40.223Z,47.02
2022-10-05T02:10:14.871Z,47.57
2022-10-05T02:12:45.843Z,47.44
2022-10-05T02:15:19.561Z,47.73
2022-10-05T02:17:59.023Z,47.04
2022-10-05T02:20:31.578Z,46.99
2022-10-05T02:23:12.445Z,47.56
2022-10-05T02:25:46.049Z,47.00
2022-10-05T02:28:27.853Z,47.84
2022-10-05T02:31:17.569Z,47.75
2022-10-05T02:33:45.963Z,47.40
2022-10-05T02:36:36.684Z,47.99
2022-10-05T02:39:23.492Z,47.77
2022-10-05T02:42:17.697Z,47.13
2022-10-05T02:45:01.128Z,47.71
2022-10-05T02:47:40.795Z,47.20
2022-10-05T02:50:26.892Z,47.07
2022-10-05T02:53:17.105Z,46.93
2022-10-05T02:55:51.652Z,47.36
2022-10-05T02:58:24.471Z,46.97
2022-10-05T03:01:05.897Z,47.22
2022-10-05T03:03:41.752Z,47.31
2022-10-05T03:06:20.681Z,47.22
2022-10-05T03:09:02.863Z,47.49
2022-10-05T03:11:40.339Z,47.36
2022-10-05T03:14:18.513Z,48.35
2022-10-05T03:16:55.674Z,48.45
2022-10-05T03:19:33.166Z,47.81
2022-10-05T03:22:20.808Z,47.79
2022-10-05T03:25:22.669Z,47.48
2022-10-05T03:28:06.982Z,47.95
2022-10-05T03:30:47.280Z,48.09
2022-10-05T03:33:21.703Z,49.11
2022-10-05T03:36:09.532Z,47.66
2022-10-05T03:38:55.431Z,48.04
2022-10-05T03:41:39.414Z,48.40
2022-10-05T03:44:18.749Z,47.98
2022-10-05T03:47:23.345Z,47.87
2022-10-05T03:50:17.409Z,48.44
2022-10-05T03:52:51.333Z,48.57
2022-10-05T03:55:29.471Z,48.83
2022-10-05T03:58:01.763Z,48.83
2022-10-05T04:00:32.008Z,48.86
2022-10-05T04:03:12.419Z,48.65
2022-10-05T04:05:51.891Z,48.47
2022-10-05T04:08:26.271Z,48.45
2022-10-05T04:10:58.053Z,48.34
2022-10-05T04:13:31.238Z,48.68
2022-10-05T04:16:30.975Z,49.77
2022-10-05T04:19:05.792Z,49.32
2022-10-05T04:21:59.074Z,49.15
2022-10-05T04:25:08.119Z,48.90
2022-10-05T04:27:45.694Z,48.56
2022-10-05T04:30:18.591Z,48.99
2022-10-05T04:32:55.657Z,48.70
2022-10-05T04:35:48.785Z,49.47
2022-10-05T04:38:35.925Z,49.05
2022-10-05T04:41:40.032Z,48.37
2022-10-05T04:44:45.905Z,48.42
2022-10-05T04:47:17.108Z,48.91
2022-10-05T04:50:17.839Z,48.33
2022-10-05T04:53:23.549Z,48.68
2022-10-05T04:56:00.425Z,48.33
2022-10-05T04:58:40.059Z,48.73
2022-10-05T05:01:41.713Z,48.34
2022-10-05T05:05:03.140Z,48.49
2022-10-05T05:08:09.358Z,48.40
2022-10-05T05:10:47.873Z,48.68
2022-10-05T05:13:41.213Z,48.81
2022-10-05T05:16:19.660Z,48.85
2022-10-05T05:19:14.835Z,49.54
2022-10-05T05:21:55.125Z,49.58
2022-10-05T05:24:45.454Z,48.65
2022-10-05T05:28:02.221Z,48.82
2022-10-05T05:30:42.841Z,48.58
2022-10-05T05:33:23.154Z,48.35
2022-10-05T05:36:06.380Z,48.71
2022-10-05T05:38:40.134Z,48.85
2022-10-05T05:41:12.138Z,49.26
2022-10-05T05:43:59.385Z,48.96
2022-10-05T05:47:02.427Z,48.16
2022-10-05T05:49:55.024Z,48.33
2022-10-05T05:52:41.493Z,48.65
2022-10-05T05:55:27.745Z,48.32
2022-10-05T05:58:09.125Z,48.09
2022-10-05T06:00:59.732Z,47.67
2022-10-05T06:03:37.405Z,47.95
2022-10-05T06:06:17.532Z,48.41
2022-10-05T06:09:00.623Z,48.62
2022-10-05T06:11:40.181Z,48.14
2022-10-05T06:14:19.023Z,48.01
2022-10-05T06:17:00.839Z,48.28
2022-10-05T06:19:34.524Z,48.28
2022-10-05T06:22:33.714Z,47.92
2022-10-05T06:25:13.495Z,47.93
2022-10-05T06:28:08.055Z,47.73
2022-10-05T06:30:42.666Z,47.71
2022-10-05T06:33:43.369Z,48.09
2022-10-05T06:36:49.506Z,48.10
2022-10-05T06:39:35.132Z,48.25
2022-10-05T06:42:10.464Z,48.21
2022-10-05T06:45:06.243Z,48.59
2022-10-05T06:47:53.248Z,48.13
2022-10-05T06:50:38.107Z,48.86
2022-10-05T06:53:28.418Z,48.18
2022-10-05T06:56:09.375Z,48.34
2022-10-05T06:58:45.878Z,48.25
2022-10-05T07:01:36.112Z,48.08
2022-10-05T07:04:22.975Z,48.14
2022-10-05T07:06:54.168Z,48.51
2022-10-05T07:09:50.081Z,47.76
2022-10-05T07:12:43.742Z,48.02
2022-10-05T07:15:46.599Z,48.31
2022-10-05T07:18:27.106Z,48.57
2022-10-05T07:20:56.392Z,47.63
2022-10-05T07:23:45.981Z,47.93
2022-10-05T07:26:37.263Z,48.24
2022-10-05T07:29:55.248Z,48.02
2022-10-05T07:32:34.671Z,47.63
2022-10-05T07:35:52.988Z,47.20
2022-10-05T07:38:49.037Z,47.67
2022-10-05T07:41:28.003Z,47.58
2022-10-05T07:44:20.810Z,47.29
2022-10-05T07:47:03.850Z,47.06
2022-10-05T07:49:40.879Z,47.45
2022-10-05T07:52:34.529Z,47.27
2022-10-05T07:55:14.214Z,47.31
2022-10-05T07:57:51.610Z,47.29
2022-10-05T08:00:22.523Z,47.55
2022-10-05T08:03:00.866Z,47.06
2022-10-05T08:05:32.231Z,47.22
2022-10-05T08:08:21.365Z,47.11
2022-10-05T08:10:52.784Z,47.12
2022-10-05T08:13:39.108Z,47.92
2022-10-05T08:16:12.617Z,47.20
2022-10-05T08:18:59.705Z,46.89
2022-10-05T08:21:42.259Z,46.96
2022-10-05T08:24:22.824Z,47.08
2022-10-05T08:27:12.588Z,46.71
2022-10-05T08:30:03.979Z,46.72
2022-10-05T08:32:47.259Z,47.49
2022-10-05T08:35:43.827Z,46.43
2022-10-05T08:38:16.749Z,46.01
2022-10-05T08:41:10.567Z,46.20
2022-10-05T08:44:08.892Z,46.89
2022-10-05T08:47:05.776Z,46.26
2022-10-05T08:49:55.329Z,46.37
2022-10-05T08:52:37.273Z,47.95
2022-10-05T08:55:41.184Z,46.34
2022-10-05T08:58:22.592Z,46.04
2022-10-05T09:01:18.205Z,45.63
2022-10-05T09:04:16.906Z,46.27
2022-10-05T09:07:08.657Z,46.08
2022-10-05T09:10:01.691Z,46.16
2022-10-05T09:12:52.289Z,45.52
2022-10-05T09:15:39.496Z,45.97
2022-10-05T09:18:27.415Z,45.49
2022-10-05T09:21:06.816Z,45.55
2022-10-05T09:23:46.260Z,45.86
2022-10-05T09:26:26.906Z,46.32
2022-10-05T09:29:17.172Z,45.50
2022-10-05T09:32:19.724Z,45.91
2022-10-05T09:34:57.770Z,45.38
2022-10-05T09:37:54.848Z,45.56
2022-10-05T09:40:32.617Z,45.55
2022-10-05T09:43:48.016Z,45.11
2022-10-05T09:46:50.944Z,45.91
2022-10-05T09:50:03.796Z,46.39
2022-10-05T09:52:56.893Z,45.54
2022-10-05T09:55:34.026Z,45.34
2022-10-05T09:58:28.332Z,44.74
2022-10-05T10:01:32.239Z,44.85
2022-10-05T10:04:19.505Z,45.48
2022-10-05T10:07:21.749Z,44.66
2022-10-05T10:10:21.250Z,45.01
2022-10-05T10:13:23.760Z,44.24
2022-10-05T10:16:11.011Z,44.23
2022-10-05T10:18:51.719Z,44.57
2022-10-05T10:21:56.162Z,44.10
2022-10-05T10:24:50.980Z,44.37
2022-10-05T10:27:20.013Z,44.56
2022-10-05T10:30:04.348Z,43.73
2022-10-05T10:33:18.868Z,44.06
2022-10-05T10:36:16.681Z,44.06
2022-10-05T10:38:59.967Z,44.07
2022-10-05T10:41:47.694Z,44.60
2022-10-05T10:44:34.770Z,44.51
2022-10-05T10:47:31.256Z,44.20
2022-10-05T10:50:28.218Z,43.56
2022-10-05T10:53:21.528Z,44.04
2022-10-05T10:56:20.998Z,43.92
2022-10-05T10:59:17.277Z,43.63
2022-10-05T11:02:14.278Z,43.02
2022-10-05T11:04:48.755Z,43.53
2022-10-05T11:07:25.208Z,43.90
2022-10-05T11:09:59.797Z,43.80
2022-10-05T11:12:46.502Z,43.56
2022-10-05T11:15:18.176Z,43.15
2022-10-05T11:17:55.972Z,43.59
2022-10-05T11:20:52.015Z,43.41
2022-10-05T11:23:49.574Z,43.26
2022-10-05T11:26:39.057Z,43.33
2022-10-05T11:29:49.181Z,42.82
2022-10-05T11:32:29.801Z,42.60
2022-10-05T11:35:34.360Z,42.39
2022-10-05T11:38:39.922Z,42.62
2022-10-05T11:41:22.526Z,42.05
2022-10-05T11:43:56.975Z,42.26
2022-10-05T11:46:40.548Z,42.22
2022-10-05T11:49:53.644Z,42.52
2022-10-05T11:52:24.953Z,42.35
2022-10-05T11:55:25.687Z,42.42
2022-10-05T11:58:19.520Z,41.34
2022-10-05T12:01:17.847Z,41.46
2022-10-05T12:04:01.920Z,41.76
2022-10-05T12:06:48.900Z,41.95
2022-10-05T12:09:23.342Z,41.39
2022-10-05T12:12:10.244Z,41.38
2022-10-05T12:14:59.837Z,41.23
2022-10-05T12:17:35.829Z,41.17
2022-10-05T12:20:12.571Z,40.44
2022-10-05T12:22:48.074Z,40.52
2022-10-05T12:25:24.340Z,40.76
2022-10-05T12:27:56.977Z,40.61
2022-10-05T12:30:34.461Z,41.53
2022-10-05T12:33:13.776Z,41.46
2022-10-05T12:35:49.450Z,40.97
2022-10-05T12:38:28.481Z,40.81
2022-10-05T12:41:20.244Z,41.85
2022-10-05T12:43:57.032Z,40.86
2022-10-05T12:46:46.564Z,40.62
2022-10-05T12:49:25.130Z,40.23
2022-10-05T12:51:59.221Z,40.54
2022-10-05T12:54:54.582Z,41.05
2022-10-05T12:57:38.214Z,41.33
2022-10-05T13:00:13.144Z,40.60
2022-10-05T13:02:59.417Z,40.43
2022-10-05T13:05:44.013Z,39.83
2022-10-05T13:08:37.173Z,39.34
2022-10-05T13:11:14.891Z,39.35
2022-10-05T13:13:55.527Z,39.47
2022-10-05T13:16:45.827Z,39.05
2022-10-05T13:19:40.117Z,39.49
2022-10-05T13:22:27.509Z,39.78
2022-10-05T13:25:17.917Z,39.06
2022-10-05T13:28:08.316Z,39.06
2022-10-05T13:30:41.868Z,38.71
2022-10-05T13:33:20.206Z,39.39
2022-10-05T13:36:07.426Z,39.40
2022-10-05T13:38:55.002Z,38.89
2022-10-05T13:41:46.006Z,39.58
2022-10-05T13:44:28.276Z,40.34
2022-10-05T13:47:12.831Z,39.43
2022-10-05T13:52:39.794Z,39.40
2022-10-05T13:55:33.267Z,39.85
2022-10-05T13:58:11.690Z,40.36
2022-10-05T14:00:48.499Z,39.81
2022-10-05T14:03:30.050Z,40.08
2022-10-05T14:06:01.318Z,41.23
2022-10-05T14:08:35.626Z,40.80
2022-10-05T14:11:36.182Z,40.34
2022-10-05T14:14:14.653Z,39.68
2022-10-05T14:16:56.151Z,39.71
2022-10-05T14:19:30.864Z,40.24
2022-10-05T14:22:13.377Z,40.49
2022-10-05T14:24:55.600Z,40.51
2022-10-05T14:27:30.005Z,40.79
2022-10-05T14:30:02.203Z,40.58
2022-10-05T14:32:33.686Z,40.93
2022-10-05T14:35:14.793Z,40.96
2022-10-05T14:37:49.349Z,40.09
2022-10-05T14:40:27.540Z,41.31
2022-10-05T14:42:59.671Z,39.90
2022-10-05T14:45:33.428Z,40.89
2022-10-05T14:48:02.004Z,42.03
2022-10-05T14:50:31.262Z,42.13
2022-10-05T14:53:10.177Z,42.49
2022-10-05T14:55:50.584Z,42.30
2022-10-05T14:58:25.177Z,42.10
2022-10-05T15:01:02.777Z,41.30
2022-10-05T15:03:46.807Z,41.98
2022-10-05T15:06:37.067Z,40.56
2022-10-05T15:09:34.757Z,41.42
2022-10-05T15:12:03.984Z,40.80
2022-10-05T15:14:38.153Z,41.01
2022-10-05T15:17:52.491Z,39.25
2022-10-05T15:20:56.204Z,39.29
2022-10-05T15:23:40.796Z,39.82
2022-10-05T15:26:36.139Z,39.43
2022-10-05T15:29:11.083Z,41.00
2022-10-05T15:32:14.626Z,40.06
2022-10-05T15:34:58.404Z,40.04
2022-10-05T15:37:47.491Z,39.54
2022-10-05T15:40:20.071Z,39.79
2022-10-05T15:42:53.286Z,39.83
2022-10-05T15:45:23.514Z,39.05
2022-10-05T15:48:17.447Z,39.74
2022-10-05T15:50:46.075Z,39.57
2022-10-05T15:53:24.177Z,39.27
2022-10-05T15:56:00.133Z,39.61
2022-10-05T15:58:44.011Z,38.98
2022-10-05T16:01:33.127Z,38.94
2022-10-05T16:04:11.857Z,38.71
2022-10-05T16:07:09.974Z,39.25
2022-10-05T16:09:56.663Z,39.23
2022-10-05T16:12:39.648Z,39.08
2022-10-05T16:15:20.195Z,39.54
2022-10-05T16:18:12.929Z,39.27
2022-10-05T16:20:50.168Z,39.11
2022-10-05T16:23:40.799Z,39.69
2022-10-05T16:26:24.568Z,40.24
2022-10-05T16:28:58.853Z,39.95
2022-10-05T16:31:27.483Z,40.29
2022-10-05T16:34:36.072Z,39.80
2022-10-05T16:37:05.408Z,39.72
2022-10-05T16:40:00.107Z,39.88
2022-10-05T16:42:38.064Z,40.32
2022-10-05T16:45:30.289Z,40.31
2022-10-05T16:48:30.765Z,40.16
2022-10-05T16:51:37.491Z,39.36
2022-10-05T16:54:18.048Z,39.41
2022-10-05T16:57:05.794Z,39.54
2022-10-05T17:00:13.428Z,39.22
2022-10-05T17:02:57.704Z,39.50
2022-10-05T17:05:34.826Z,39.53
2022-10-05T17:08:29.488Z,39.61
2022-10-05T17:11:35.480Z,39.69
2022-10-05T17:14:22.376Z,40.08
2022-10-05T17:17:17.149Z,40.20
2022-10-05T17:19:54.720Z,40.11
2022-10-05T17:22:36.124Z,40.22
2022-10-05T17:25:24.206Z,40.69
2022-10-05T17:28:12.786Z,40.05
2022-10-05T17:31:17.842Z,40.32
2022-10-05T17:34:16.165Z,39.87
2022-10-05T17:36:50.362Z,40.34
2022-10-05T17:39:21.621Z,40.55
2022-10-05T17:41:50.363Z,41.30
2022-10-05T17:44:24.257Z,40.65
2022-10-05T17:46:57.338Z,39.98
2022-10-05T17:50:14.992Z,40.26
2022-10-05T17:53:03.314Z,40.65
2022-10-05T17:55:31.600Z,40.57
2022-10-05T17:58:29.348Z,40.35
2022-10-05T18:00:57.806Z,40.73
2022-10-05T18:03:49.262Z,40.94
2022-10-05T18:06:24.298Z,40.75
2022-10-05T18:09:22.056Z,40.50
2022-10-05T18:12:18.003Z,41.06
2022-10-05T18:15:14.341Z,40.67
2022-10-05T18:17:47.398Z,41.15
2022-10-05T18:20:19.147Z,41.04
2022-10-05T18:22:50.383Z,41.66
2022-10-05T18:25:21.766Z,41.36
2022-10-05T18:28:12.109Z,41.57
2022-10-05T18:31:17.695Z,41.79
2022-10-05T18:33:49.445Z,41.55
2022-10-05T18:36:28.252Z,41.50
2022-10-05T18:39:22.852Z,41.23
2022-10-05T18:42:00.356Z,41.74
2022-10-05T18:44:54.620Z,42.00
2022-10-05T18:47:44.323Z,42.52
2022-10-05T18:50:23.707Z,42.42
2022-10-05T18:53:24.135Z,42.24
2022-10-05T18:56:07.693Z,42.01
2022-10-05T18:58:58.740Z,41.45
2022-10-05T19:01:51.059Z,42.85
2022-10-05T19:04:30.151Z,42.58
2022-10-05T19:07:29.957Z,42.86
2022-10-05T19:10:08.659Z,42.00
2022-10-05T19:13:14.584Z,44.06
2022-10-05T19:15:49.930Z,43.20
2022-10-05T19:18:33.865Z,42.68
2022-10-05T19:21:08.474Z,42.57
2022-10-05T19:24:04.383Z,42.38
2022-10-05T19:27:00.833Z,42.63
2022-10-05T19:29:44.672Z,42.82
2022-10-05T19:32:31.686Z,42.77
2022-10-05T19:35:16.502Z,42.18
2022-10-05T19:41:13.147Z,43.88
2022-10-05T19:43:57.590Z,43.05
2022-10-05T19:46:47.268Z,44.27
2022-10-05T19:49:35.270Z,44.78
2022-10-05T19:52:10.829Z,45.49
2022-10-05T19:54:42.489Z,46.09
2022-10-05T19:57:17.902Z,50.66
2022-10-05T19:59:47.725Z,53.30
2022-10-05T20:02:17.361Z,52.15
2022-10-05T20:04:52.064Z,52.75
2022-10-05T20:07:22.917Z,54.37
2022-10-05T20:10:18.527Z,52.04
2022-10-05T20:12:52.407Z,50.65
2022-10-05T20:15:44.889Z,50.56
2022-10-05T20:19:10.841Z,50.78
2022-10-05T20:21:47.055Z,50.67
2022-10-05T20:24:21.098Z,48.55
2022-10-05T20:27:12.625Z,48.40
2022-10-05T20:29:44.894Z,50.75
2022-10-05T20:32:15.080Z,49.51
2022-10-05T20:34:47.948Z,49.57
2022-10-05T20:37:18.790Z,49.00
2022-10-05T20:39:53.187Z,49.21
2022-10-05T20:42:22.921Z,48.22
2022-10-05T20:44:56.661Z,49.44
2022-10-05T20:47:26.222Z,49.46
2022-10-05T20:49:54.770Z,49.79
2022-10-05T20:52:23.391Z,48.90
2022-10-05T20:54:53.900Z,49.00
2022-10-05T20:57:23.896Z,50.84
2022-10-05T20:59:52.308Z,50.26
2022-10-05T21:02:20.727Z,49.07
2022-10-05T21:04:49.671Z,49.06
2022-10-05T21:07:23.353Z,49.75
2022-10-05T21:09:52.090Z,48.45
2022-10-05T21:12:20.440Z,49.61
2022-10-05T21:14:48.961Z,49.99
2022-10-05T21:17:17.307Z,49.22
2022-10-05T21:19:46.436Z,51.00
2022-10-05T21:22:14.766Z,54.97
2022-10-05T21:24:43.266Z,55.76
2022-10-05T21:27:11.683Z,58.45
2022-10-05T21:29:41.363Z,58.95
2022-10-05T21:32:11.632Z,58.17
2022-10-05T21:34:41.250Z,56.45
2022-10-05T21:37:09.790Z,56.40
2022-10-05T21:39:38.116Z,55.99
2022-10-05T21:42:06.485Z,56.15
2022-10-05T21:44:34.878Z,56.77
2022-10-05T21:47:04.197Z,55.90
2022-10-05T21:49:33.501Z,54.77
2022-10-05T21:52:05.191Z,53.10
2022-10-05T21:54:34.967Z,51.88
2022-10-05T21:57:03.445Z,51.97
2022-10-05T21:59:33.491Z,53.03
2022-10-05T22:02:02.675Z,53.65
2022-10-05T22:04:31.122Z,52.38
2022-10-05T22:06:59.680Z,52.33
2022-10-05T22:09:28.186Z,50.87
2022-10-05T22:11:57.372Z,51.18
2022-10-05T22:14:25.758Z,51.00
2022-10-05T22:16:54.326Z,52.18
2022-10-05T22:19:22.845Z,54.22
2022-10-05T22:21:51.182Z,51.91
2022-10-05T22:24:19.511Z,51.89
2022-10-05T22:26:51.441Z,52.65
2022-10-05T22:29:20.646Z,51.92
2022-10-05T22:31:49.274Z,51.74
2022-10-05T22:34:18.206Z,52.15
2022-10-05T22:36:47.464Z,52.85
2022-10-05T22:39:17.162Z,53.03
2022-10-05T22:41:45.524Z,52.63
2022-10-05T22:44:14.086Z,52.19
2022-10-05T22:46:42.846Z,51.99
2022-10-05T22:49:11.185Z,51.66
2022-10-05T22:51:39.605Z,52.38
2022-10-05T22:54:08.034Z,52.74
2022-10-05T22:56:36.397Z,52.57
2022-10-05T22:59:04.773Z,50.46
2022-10-05T23:01:33.206Z,50.52
2022-10-05T23:04:01.754Z,50.74
2022-10-05T23:06:30.484Z,51.54
2022-10-05T23:08:58.842Z,50.90
2022-10-05T23:11:28.251Z,51.07
2022-10-05T23:13:56.944Z,51.61
2022-10-05T23:16:28.010Z,50.80
2022-10-05T23:18:56.567Z,52.83
2022-10-05T23:21:28.353Z,52.06
2022-10-05T23:23:56.739Z,51.20
2022-10-05T23:26:25.588Z,51.75
2022-10-05T23:28:54.196Z,53.88
2022-10-05T23:31:25.829Z,53.39
2022-10-05T23:33:54.294Z,51.63
2022-10-05T23:36:25.298Z,51.27
2022-10-05T23:38:54.147Z,51.03
2022-10-05T23:41:22.553Z,51.35
2022-10-05T23:43:51.997Z,52.16
2022-10-05T23:46:20.555Z,52.06
2022-10-05T23:48:50.277Z,50.91
2022-10-05T23:51:18.732Z,50.33
2022-10-05T23:53:47.083Z,50.26
2022-10-05T23:56:15.566Z,50.68
2022-10-05T23:58:44.926Z,51.07
